sensor_id;sensor_type;location;lat;lon;timestamp;P1;durP1;ratioP1;P2;durP2;ratioP2
63714;SDS011;49858;48.956;9.076;2023-08-12T00:00:45;12.32;;;6.57;;
63714;SDS011;49858;48.956;9.076;2023-08-12T00:03:13;9.18;;;6.63;;
63714;SDS011;49858;48.956;9.076;2023-08-12T00:05:41;8.40;;;6.28;;
63714;SDS011;49858;48.956;9.076;2023-08-12T00:08:10;9.30;;;6.03;;
63714;SDS011;49858;48.956;9.076;2023-08-12T00:10:38;9.50;;;6.28;;
63714;SDS011;49858;48.956;9.076;2023-08-12T00:13:06;10.20;;;6.25;;
63714;SDS011;49858;48.956;9.076;2023-08-12T00:15:35;8.98;;;6.20;;
63714;SDS011;49858;48.956;9.076;2023-08-12T00:18:03;7.90;;;5.88;;
63714;SDS011;49858;48.956;9.076;2023-08-12T00:20:33;7.82;;;5.40;;
63714;SDS011;49858;48.956;9.076;2023-08-12T00:23:00;15.82;;;6.57;;
63714;SDS011;49858;48.956;9.076;2023-08-12T00:25:29;12.18;;;6.28;;
63714;SDS011;49858;48.956;9.076;2023-08-12T00:27:57;12.40;;;6.57;;
63714;SDS011;49858;48.956;9.076;2023-08-12T00:30:25;10.15;;;6.25;;
63714;SDS011;49858;48.956;9.076;2023-08-12T00:32:55;14.30;;;5.85;;
63714;SDS011;49858;48.956;9.076;2023-08-12T00:35:23;8.88;;;5.38;;
63714;SDS011;49858;48.956;9.076;2023-08-12T00:37:51;12.40;;;6.35;;
63714;SDS011;49858;48.956;9.076;2023-08-12T00:40:19;9.15;;;5.60;;
63714;SDS011;49858;48.956;9.076;2023-08-12T00:42:47;8.50;;;5.70;;
63714;SDS011;49858;48.956;9.076;2023-08-12T00:45:15;11.30;;;6.25;;
63714;SDS011;49858;48.956;9.076;2023-08-12T00:47:46;9.82;;;6.07;;
63714;SDS011;49858;48.956;9.076;2023-08-12T00:50:16;13.55;;;6.00;;
63714;SDS011;49858;48.956;9.076;2023-08-12T00:52:43;9.43;;;6.07;;
63714;SDS011;49858;48.956;9.076;2023-08-12T00:55:12;9.85;;;5.93;;
63714;SDS011;49858;48.956;9.076;2023-08-12T00:57:42;13.00;;;6.88;;
63714;SDS011;49858;48.956;9.076;2023-08-12T01:00:11;7.90;;;5.68;;
63714;SDS011;49858;48.956;9.076;2023-08-12T01:02:40;13.07;;;6.45;;
63714;SDS011;49858;48.956;9.076;2023-08-12T01:05:11;9.55;;;6.00;;
63714;SDS011;49858;48.956;9.076;2023-08-12T01:07:41;10.25;;;5.80;;
63714;SDS011;49858;48.956;9.076;2023-08-12T01:10:10;10.60;;;6.10;;
63714;SDS011;49858;48.956;9.076;2023-08-12T01:12:44;12.00;;;6.05;;
63714;SDS011;49858;48.956;9.076;2023-08-12T01:15:18;10.38;;;5.93;;
63714;SDS011;49858;48.956;9.076;2023-08-12T01:17:50;11.50;;;5.85;;
63714;SDS011;49858;48.956;9.076;2023-08-12T01:20:21;9.07;;;6.05;;
63714;SDS011;49858;48.956;9.076;2023-08-12T01:22:57;8.77;;;5.45;;
63714;SDS011;49858;48.956;9.076;2023-08-12T01:25:30;10.25;;;6.28;;
63714;SDS011;49858;48.956;9.076;2023-08-12T01:28:04;13.70;;;6.43;;
63714;SDS011;49858;48.956;9.076;2023-08-12T01:30:32;10.55;;;6.25;;
63714;SDS011;49858;48.956;9.076;2023-08-12T01:33:05;10.90;;;6.30;;
63714;SDS011;49858;48.956;9.076;2023-08-12T01:35:39;8.65;;;5.75;;
63714;SDS011;49858;48.956;9.076;2023-08-12T01:38:14;9.57;;;5.72;;
63714;SDS011;49858;48.956;9.076;2023-08-12T01:40:45;10.13;;;5.90;;
63714;SDS011;49858;48.956;9.076;2023-08-12T01:43:15;8.88;;;5.65;;
63714;SDS011;49858;48.956;9.076;2023-08-12T01:45:43;8.10;;;5.60;;
63714;SDS011;49858;48.956;9.076;2023-08-12T01:48:16;8.32;;;5.45;;
63714;SDS011;49858;48.956;9.076;2023-08-12T01:50:46;8.65;;;5.43;;
63714;SDS011;49858;48.956;9.076;2023-08-12T01:53:14;7.53;;;5.68;;
63714;SDS011;49858;48.956;9.076;2023-08-12T01:55:42;9.05;;;6.38;;
63714;SDS011;49858;48.956;9.076;2023-08-12T01:58:12;10.60;;;5.82;;
63714;SDS011;49858;48.956;9.076;2023-08-12T02:00:40;9.90;;;6.13;;
63714;SDS011;49858;48.956;9.076;2023-08-12T02:03:09;8.93;;;5.90;;
63714;SDS011;49858;48.956;9.076;2023-08-12T02:05:37;8.02;;;5.50;;
63714;SDS011;49858;48.956;9.076;2023-08-12T02:08:07;8.43;;;5.38;;
63714;SDS011;49858;48.956;9.076;2023-08-12T02:10:35;9.02;;;5.22;;
63714;SDS011;49858;48.956;9.076;2023-08-12T02:13:03;10.90;;;5.82;;
63714;SDS011;49858;48.956;9.076;2023-08-12T02:15:32;7.97;;;5.45;;
63714;SDS011;49858;48.956;9.076;2023-08-12T02:18:01;8.45;;;5.40;;
63714;SDS011;49858;48.956;9.076;2023-08-12T02:20:29;9.63;;;5.57;;
63714;SDS011;49858;48.956;9.076;2023-08-12T02:23:00;6.88;;;4.75;;
63714;SDS011;49858;48.956;9.076;2023-08-12T02:25:28;8.18;;;5.10;;
63714;SDS011;49858;48.956;9.076;2023-08-12T02:27:58;8.25;;;5.00;;
63714;SDS011;49858;48.956;9.076;2023-08-12T02:30:28;8.02;;;5.07;;
63714;SDS011;49858;48.956;9.076;2023-08-12T02:32:58;8.35;;;5.13;;
63714;SDS011;49858;48.956;9.076;2023-08-12T02:35:26;9.93;;;5.50;;
63714;SDS011;49858;48.956;9.076;2023-08-12T02:37:54;8.48;;;5.32;;
63714;SDS011;49858;48.956;9.076;2023-08-12T02:40:22;11.93;;;5.38;;
63714;SDS011;49858;48.956;9.076;2023-08-12T02:42:50;6.35;;;4.57;;
63714;SDS011;49858;48.956;9.076;2023-08-12T02:45:18;7.32;;;4.90;;
63714;SDS011;49858;48.956;9.076;2023-08-12T02:47:45;7.13;;;5.13;;
63714;SDS011;49858;48.956;9.076;2023-08-12T02:50:15;9.65;;;5.45;;
63714;SDS011;49858;48.956;9.076;2023-08-12T02:52:43;9.43;;;5.40;;
63714;SDS011;49858;48.956;9.076;2023-08-12T02:55:11;7.78;;;5.28;;
63714;SDS011;49858;48.956;9.076;2023-08-12T02:57:39;8.70;;;5.43;;
63714;SDS011;49858;48.956;9.076;2023-08-12T03:00:09;9.98;;;5.60;;
63714;SDS011;49858;48.956;9.076;2023-08-12T03:02:41;7.47;;;5.30;;
63714;SDS011;49858;48.956;9.076;2023-08-12T03:05:09;8.05;;;5.72;;
63714;SDS011;49858;48.956;9.076;2023-08-12T03:07:42;8.85;;;5.80;;
63714;SDS011;49858;48.956;9.076;2023-08-12T03:10:13;7.70;;;5.20;;
63714;SDS011;49858;48.956;9.076;2023-08-12T03:12:41;9.02;;;5.30;;
63714;SDS011;49858;48.956;9.076;2023-08-12T03:15:09;12.70;;;5.35;;
63714;SDS011;49858;48.956;9.076;2023-08-12T03:17:38;7.85;;;5.15;;
63714;SDS011;49858;48.956;9.076;2023-08-12T03:20:08;7.97;;;5.20;;
63714;SDS011;49858;48.956;9.076;2023-08-12T03:22:39;8.05;;;5.15;;
63714;SDS011;49858;48.956;9.076;2023-08-12T03:25:09;7.00;;;5.07;;
63714;SDS011;49858;48.956;9.076;2023-08-12T03:27:37;7.65;;;5.63;;
63714;SDS011;49858;48.956;9.076;2023-08-12T03:30:08;10.50;;;5.68;;
63714;SDS011;49858;48.956;9.076;2023-08-12T03:32:37;8.00;;;5.32;;
63714;SDS011;49858;48.956;9.076;2023-08-12T03:35:05;7.55;;;5.70;;
63714;SDS011;49858;48.956;9.076;2023-08-12T03:37:34;10.10;;;5.25;;
63714;SDS011;49858;48.956;9.076;2023-08-12T03:40:04;7.32;;;4.70;;
63714;SDS011;49858;48.956;9.076;2023-08-12T03:42:35;9.90;;;4.95;;
63714;SDS011;49858;48.956;9.076;2023-08-12T03:45:03;7.22;;;4.85;;
63714;SDS011;49858;48.956;9.076;2023-08-12T03:47:32;7.97;;;5.10;;
63714;SDS011;49858;48.956;9.076;2023-08-12T03:50:00;15.70;;;5.18;;
63714;SDS011;49858;48.956;9.076;2023-08-12T03:52:30;9.32;;;6.05;;
63714;SDS011;49858;48.956;9.076;2023-08-12T03:54:58;9.52;;;5.72;;
63714;SDS011;49858;48.956;9.076;2023-08-12T03:57:28;7.80;;;5.45;;
63714;SDS011;49858;48.956;9.076;2023-08-12T03:59:59;7.95;;;5.45;;
63714;SDS011;49858;48.956;9.076;2023-08-12T04:02:27;10.63;;;5.30;;
63714;SDS011;49858;48.956;9.076;2023-08-12T04:04:55;8.23;;;5.65;;
63714;SDS011;49858;48.956;9.076;2023-08-12T04:07:24;9.02;;;6.07;;
63714;SDS011;49858;48.956;9.076;2023-08-12T04:09:53;7.55;;;5.45;;
63714;SDS011;49858;48.956;9.076;2023-08-12T04:12:21;8.23;;;5.80;;
63714;SDS011;49858;48.956;9.076;2023-08-12T04:14:49;10.15;;;6.50;;
63714;SDS011;49858;48.956;9.076;2023-08-12T04:17:18;10.38;;;6.65;;
63714;SDS011;49858;48.956;9.076;2023-08-12T04:19:46;11.70;;;6.45;;
63714;SDS011;49858;48.956;9.076;2023-08-12T04:22:14;8.50;;;5.78;;
63714;SDS011;49858;48.956;9.076;2023-08-12T04:24:43;10.02;;;6.40;;
63714;SDS011;49858;48.956;9.076;2023-08-12T04:27:12;10.68;;;5.40;;
63714;SDS011;49858;48.956;9.076;2023-08-12T04:29:40;8.90;;;5.90;;
63714;SDS011;49858;48.956;9.076;2023-08-12T04:32:08;9.40;;;6.10;;
63714;SDS011;49858;48.956;9.076;2023-08-12T04:34:38;9.82;;;5.85;;
63714;SDS011;49858;48.956;9.076;2023-08-12T04:37:06;11.98;;;6.07;;
63714;SDS011;49858;48.956;9.076;2023-08-12T04:39:33;10.63;;;5.28;;
63714;SDS011;49858;48.956;9.076;2023-08-12T04:42:01;9.10;;;6.03;;
63714;SDS011;49858;48.956;9.076;2023-08-12T04:44:30;10.85;;;5.78;;
63714;SDS011;49858;48.956;9.076;2023-08-12T04:46:59;10.18;;;5.60;;
63714;SDS011;49858;48.956;9.076;2023-08-12T04:49:28;9.60;;;6.20;;
63714;SDS011;49858;48.956;9.076;2023-08-12T04:51:57;9.82;;;5.20;;
63714;SDS011;49858;48.956;9.076;2023-08-12T04:54:26;9.10;;;5.90;;
63714;SDS011;49858;48.956;9.076;2023-08-12T04:56:54;10.38;;;7.07;;
63714;SDS011;49858;48.956;9.076;2023-08-12T04:59:23;7.97;;;5.30;;
63714;SDS011;49858;48.956;9.076;2023-08-12T05:01:51;9.98;;;6.30;;
63714;SDS011;49858;48.956;9.076;2023-08-12T05:04:30;12.40;;;6.80;;
63714;SDS011;49858;48.956;9.076;2023-08-12T05:07:00;11.27;;;6.38;;
63714;SDS011;49858;48.956;9.076;2023-08-12T05:09:28;14.27;;;6.90;;
63714;SDS011;49858;48.956;9.076;2023-08-12T05:11:56;10.30;;;6.90;;
63714;SDS011;49858;48.956;9.076;2023-08-12T05:14:25;10.48;;;6.80;;
63714;SDS011;49858;48.956;9.076;2023-08-12T05:16:53;13.38;;;7.35;;
63714;SDS011;49858;48.956;9.076;2023-08-12T05:19:21;10.45;;;6.30;;
63714;SDS011;49858;48.956;9.076;2023-08-12T05:21:48;9.68;;;6.53;;
63714;SDS011;49858;48.956;9.076;2023-08-12T05:24:18;11.95;;;6.82;;
63714;SDS011;49858;48.956;9.076;2023-08-12T05:26:46;12.35;;;7.95;;
63714;SDS011;49858;48.956;9.076;2023-08-12T05:29:14;12.82;;;7.55;;
63714;SDS011;49858;48.956;9.076;2023-08-12T05:31:42;13.95;;;8.80;;
63714;SDS011;49858;48.956;9.076;2023-08-12T05:34:10;10.73;;;7.63;;
63714;SDS011;49858;48.956;9.076;2023-08-12T05:36:38;10.40;;;7.20;;
63714;SDS011;49858;48.956;9.076;2023-08-12T05:39:05;14.68;;;8.07;;
63714;SDS011;49858;48.956;9.076;2023-08-12T05:41:35;12.05;;;7.97;;
63714;SDS011;49858;48.956;9.076;2023-08-12T05:44:03;13.20;;;8.15;;
63714;SDS011;49858;48.956;9.076;2023-08-12T05:46:31;15.00;;;8.27;;
63714;SDS011;49858;48.956;9.076;2023-08-12T05:48:59;10.32;;;7.32;;
63714;SDS011;49858;48.956;9.076;2023-08-12T05:51:27;9.23;;;6.40;;
63714;SDS011;49858;48.956;9.076;2023-08-12T05:53:56;12.57;;;7.30;;
63714;SDS011;49858;48.956;9.076;2023-08-12T05:56:24;11.27;;;7.15;;
63714;SDS011;49858;48.956;9.076;2023-08-12T05:58:53;11.75;;;7.30;;
63714;SDS011;49858;48.956;9.076;2023-08-12T06:01:21;11.40;;;7.45;;
63714;SDS011;49858;48.956;9.076;2023-08-12T06:03:49;15.13;;;8.15;;
63714;SDS011;49858;48.956;9.076;2023-08-12T06:06:17;14.43;;;8.60;;
63714;SDS011;49858;48.956;9.076;2023-08-12T06:08:44;13.70;;;9.07;;
63714;SDS011;49858;48.956;9.076;2023-08-12T06:11:12;17.33;;;9.98;;
63714;SDS011;49858;48.956;9.076;2023-08-12T06:13:40;14.95;;;9.45;;
63714;SDS011;49858;48.956;9.076;2023-08-12T06:16:12;15.52;;;9.32;;
63714;SDS011;49858;48.956;9.076;2023-08-12T06:18:42;17.08;;;9.20;;
63714;SDS011;49858;48.956;9.076;2023-08-12T06:21:09;15.43;;;9.75;;
63714;SDS011;49858;48.956;9.076;2023-08-12T06:23:37;15.32;;;9.57;;
63714;SDS011;49858;48.956;9.076;2023-08-12T06:26:05;17.10;;;9.88;;
63714;SDS011;49858;48.956;9.076;2023-08-12T06:28:33;15.73;;;9.70;;
63714;SDS011;49858;48.956;9.076;2023-08-12T06:31:01;15.10;;;9.48;;
63714;SDS011;49858;48.956;9.076;2023-08-12T06:33:30;14.55;;;9.18;;
63714;SDS011;49858;48.956;9.076;2023-08-12T06:36:00;15.55;;;10.18;;
63714;SDS011;49858;48.956;9.076;2023-08-12T06:38:28;17.27;;;10.38;;
63714;SDS011;49858;48.956;9.076;2023-08-12T06:40:56;17.00;;;10.23;;
63714;SDS011;49858;48.956;9.076;2023-08-12T06:43:24;17.90;;;11.23;;
63714;SDS011;49858;48.956;9.076;2023-08-12T06:45:54;21.15;;;11.45;;
63714;SDS011;49858;48.956;9.076;2023-08-12T06:48:22;19.27;;;10.90;;
63714;SDS011;49858;48.956;9.076;2023-08-12T06:50:53;17.42;;;10.50;;
63714;SDS011;49858;48.956;9.076;2023-08-12T06:53:22;16.83;;;9.73;;
63714;SDS011;49858;48.956;9.076;2023-08-12T06:55:50;13.77;;;9.00;;
63714;SDS011;49858;48.956;9.076;2023-08-12T06:58:18;15.27;;;9.40;;
63714;SDS011;49858;48.956;9.076;2023-08-12T07:00:46;17.60;;;9.88;;
63714;SDS011;49858;48.956;9.076;2023-08-12T07:03:13;16.00;;;9.77;;
63714;SDS011;49858;48.956;9.076;2023-08-12T07:05:41;13.15;;;9.00;;
63714;SDS011;49858;48.956;9.076;2023-08-12T07:08:11;11.38;;;7.57;;
63714;SDS011;49858;48.956;9.076;2023-08-12T07:10:39;14.07;;;7.57;;
63714;SDS011;49858;48.956;9.076;2023-08-12T07:13:07;10.52;;;7.05;;
63714;SDS011;49858;48.956;9.076;2023-08-12T07:15:38;12.70;;;8.48;;
63714;SDS011;49858;48.956;9.076;2023-08-12T07:18:06;10.25;;;7.90;;
63714;SDS011;49858;48.956;9.076;2023-08-12T07:20:34;12.70;;;8.45;;
63714;SDS011;49858;48.956;9.076;2023-08-12T07:23:02;10.77;;;7.45;;
63714;SDS011;49858;48.956;9.076;2023-08-12T07:25:31;8.75;;;6.82;;
63714;SDS011;49858;48.956;9.076;2023-08-12T07:27:59;11.50;;;6.38;;
63714;SDS011;49858;48.956;9.076;2023-08-12T07:30:28;8.70;;;5.82;;
63714;SDS011;49858;48.956;9.076;2023-08-12T07:33:01;14.18;;;8.18;;
63714;SDS011;49858;48.956;9.076;2023-08-12T07:35:29;12.75;;;7.97;;
63714;SDS011;49858;48.956;9.076;2023-08-12T07:37:59;14.98;;;9.43;;
63714;SDS011;49858;48.956;9.076;2023-08-12T07:40:29;14.73;;;8.57;;
63714;SDS011;49858;48.956;9.076;2023-08-12T07:42:59;8.77;;;6.97;;
63714;SDS011;49858;48.956;9.076;2023-08-12T07:45:27;9.75;;;6.72;;
63714;SDS011;49858;48.956;9.076;2023-08-12T07:47:55;9.75;;;7.20;;
63714;SDS011;49858;48.956;9.076;2023-08-12T07:50:23;10.13;;;6.80;;
63714;SDS011;49858;48.956;9.076;2023-08-12T07:52:53;9.80;;;6.68;;
63714;SDS011;49858;48.956;9.076;2023-08-12T07:55:21;12.13;;;6.72;;
63714;SDS011;49858;48.956;9.076;2023-08-12T07:57:51;8.90;;;6.40;;
63714;SDS011;49858;48.956;9.076;2023-08-12T08:00:21;10.13;;;5.85;;
63714;SDS011;49858;48.956;9.076;2023-08-12T08:02:49;8.07;;;5.80;;
63714;SDS011;49858;48.956;9.076;2023-08-12T08:05:17;9.00;;;5.93;;
63714;SDS011;49858;48.956;9.076;2023-08-12T08:07:45;7.03;;;5.70;;
63714;SDS011;49858;48.956;9.076;2023-08-12T08:10:15;8.23;;;5.97;;
63714;SDS011;49858;48.956;9.076;2023-08-12T08:12:43;8.57;;;5.80;;
63714;SDS011;49858;48.956;9.076;2023-08-12T08:15:11;10.45;;;4.63;;
63714;SDS011;49858;48.956;9.076;2023-08-12T08:17:40;9.60;;;6.30;;
63714;SDS011;49858;48.956;9.076;2023-08-12T08:20:08;7.32;;;5.57;;
63714;SDS011;49858;48.956;9.076;2023-08-12T08:22:37;8.52;;;6.07;;
63714;SDS011;49858;48.956;9.076;2023-08-12T08:25:06;10.65;;;6.75;;
63714;SDS011;49858;48.956;9.076;2023-08-12T08:27:34;9.18;;;6.78;;
63714;SDS011;49858;48.956;9.076;2023-08-12T08:30:02;10.00;;;6.55;;
63714;SDS011;49858;48.956;9.076;2023-08-12T08:32:31;7.20;;;5.60;;
63714;SDS011;49858;48.956;9.076;2023-08-12T08:35:06;7.63;;;5.90;;
63714;SDS011;49858;48.956;9.076;2023-08-12T08:37:34;9.35;;;6.07;;
63714;SDS011;49858;48.956;9.076;2023-08-12T08:40:02;9.77;;;6.35;;
63714;SDS011;49858;48.956;9.076;2023-08-12T08:42:31;9.23;;;5.30;;
63714;SDS011;49858;48.956;9.076;2023-08-12T08:45:00;9.85;;;5.40;;
63714;SDS011;49858;48.956;9.076;2023-08-12T08:47:29;6.10;;;4.60;;
63714;SDS011;49858;48.956;9.076;2023-08-12T08:49:58;8.00;;;6.05;;
63714;SDS011;49858;48.956;9.076;2023-08-12T08:52:29;6.68;;;5.32;;
63714;SDS011;49858;48.956;9.076;2023-08-12T08:54:57;8.23;;;5.07;;
63714;SDS011;49858;48.956;9.076;2023-08-12T08:57:29;7.38;;;5.05;;
63714;SDS011;49858;48.956;9.076;2023-08-12T09:00:06;6.78;;;5.22;;
63714;SDS011;49858;48.956;9.076;2023-08-12T09:02:39;7.90;;;5.20;;
63714;SDS011;49858;48.956;9.076;2023-08-12T09:05:07;8.18;;;4.82;;
63714;SDS011;49858;48.956;9.076;2023-08-12T09:07:37;7.90;;;5.00;;
63714;SDS011;49858;48.956;9.076;2023-08-12T09:10:07;12.13;;;5.97;;
63714;SDS011;49858;48.956;9.076;2023-08-12T09:12:39;6.10;;;4.87;;
63714;SDS011;49858;48.956;9.076;2023-08-12T09:15:08;6.53;;;5.18;;
63714;SDS011;49858;48.956;9.076;2023-08-12T09:17:38;8.07;;;4.97;;
63714;SDS011;49858;48.956;9.076;2023-08-12T09:20:06;6.30;;;3.67;;
63714;SDS011;49858;48.956;9.076;2023-08-12T09:22:40;3.70;;;2.95;;
63714;SDS011;49858;48.956;9.076;2023-08-12T09:25:09;4.90;;;3.80;;
63714;SDS011;49858;48.956;9.076;2023-08-12T09:27:37;7.65;;;3.97;;
63714;SDS011;49858;48.956;9.076;2023-08-12T09:30:07;5.40;;;3.92;;
63714;SDS011;49858;48.956;9.076;2023-08-12T09:32:35;9.63;;;4.68;;
63714;SDS011;49858;48.956;9.076;2023-08-12T09:35:05;5.68;;;4.13;;
63714;SDS011;49858;48.956;9.076;2023-08-12T09:37:44;5.38;;;4.05;;
63714;SDS011;49858;48.956;9.076;2023-08-12T09:40:12;5.50;;;4.25;;
63714;SDS011;49858;48.956;9.076;2023-08-12T09:42:43;5.90;;;4.18;;
63714;SDS011;49858;48.956;9.076;2023-08-12T09:45:12;7.38;;;3.95;;
63714;SDS011;49858;48.956;9.076;2023-08-12T09:47:41;5.97;;;4.22;;
63714;SDS011;49858;48.956;9.076;2023-08-12T09:50:12;7.13;;;4.73;;
63714;SDS011;49858;48.956;9.076;2023-08-12T09:52:42;4.93;;;3.50;;
63714;SDS011;49858;48.956;9.076;2023-08-12T09:55:11;5.80;;;4.40;;
63714;SDS011;49858;48.956;9.076;2023-08-12T09:57:43;6.50;;;4.68;;
63714;SDS011;49858;48.956;9.076;2023-08-12T10:00:15;9.15;;;4.78;;
63714;SDS011;49858;48.956;9.076;2023-08-12T10:02:45;9.93;;;5.18;;
63714;SDS011;49858;48.956;9.076;2023-08-12T10:05:19;6.57;;;5.00;;
63714;SDS011;49858;48.956;9.076;2023-08-12T10:07:51;7.68;;;5.40;;
63714;SDS011;49858;48.956;9.076;2023-08-12T10:10:21;9.43;;;6.45;;
63714;SDS011;49858;48.956;9.076;2023-08-12T10:12:51;5.95;;;4.57;;
63714;SDS011;49858;48.956;9.076;2023-08-12T10:15:20;5.72;;;4.35;;
63714;SDS011;49858;48.956;9.076;2023-08-12T10:17:49;7.82;;;5.28;;
63714;SDS011;49858;48.956;9.076;2023-08-12T10:20:20;5.10;;;4.32;;
63714;SDS011;49858;48.956;9.076;2023-08-12T10:22:49;5.45;;;4.10;;
63714;SDS011;49858;48.956;9.076;2023-08-12T10:25:22;6.38;;;5.05;;
63714;SDS011;49858;48.956;9.076;2023-08-12T10:27:58;6.30;;;5.15;;
63714;SDS011;49858;48.956;9.076;2023-08-12T10:30:28;7.60;;;5.38;;
63714;SDS011;49858;48.956;9.076;2023-08-12T10:32:57;6.63;;;3.92;;
63714;SDS011;49858;48.956;9.076;2023-08-12T10:35:39;5.07;;;3.65;;
63714;SDS011;49858;48.956;9.076;2023-08-12T10:38:11;6.25;;;4.07;;
63714;SDS011;49858;48.956;9.076;2023-08-12T10:40:41;6.82;;;4.93;;
63714;SDS011;49858;48.956;9.076;2023-08-12T10:43:10;7.07;;;5.03;;
63714;SDS011;49858;48.956;9.076;2023-08-12T10:45:42;7.95;;;4.57;;
63714;SDS011;49858;48.956;9.076;2023-08-12T10:48:17;4.43;;;3.53;;
63714;SDS011;49858;48.956;9.076;2023-08-12T10:50:48;5.50;;;4.40;;
63714;SDS011;49858;48.956;9.076;2023-08-12T10:53:22;4.60;;;3.92;;
63714;SDS011;49858;48.956;9.076;2023-08-12T10:55:56;7.28;;;4.75;;
63714;SDS011;49858;48.956;9.076;2023-08-12T10:58:28;5.65;;;4.47;;
63714;SDS011;49858;48.956;9.076;2023-08-12T11:00:57;6.43;;;4.20;;
63714;SDS011;49858;48.956;9.076;2023-08-12T11:03:25;5.90;;;3.90;;
63714;SDS011;49858;48.956;9.076;2023-08-12T11:05:53;4.70;;;3.75;;
63714;SDS011;49858;48.956;9.076;2023-08-12T11:08:27;5.72;;;3.97;;
63714;SDS011;49858;48.956;9.076;2023-08-12T11:10:55;5.28;;;3.72;;
63714;SDS011;49858;48.956;9.076;2023-08-12T11:13:26;4.13;;;3.50;;
63714;SDS011;49858;48.956;9.076;2023-08-12T11:16:05;3.80;;;3.22;;
63714;SDS011;49858;48.956;9.076;2023-08-12T11:18:35;5.35;;;4.32;;
63714;SDS011;49858;48.956;9.076;2023-08-12T11:21:07;5.13;;;4.30;;
63714;SDS011;49858;48.956;9.076;2023-08-12T11:23:39;5.72;;;4.25;;
63714;SDS011;49858;48.956;9.076;2023-08-12T11:26:07;11.88;;;4.10;;
63714;SDS011;49858;48.956;9.076;2023-08-12T11:28:37;5.43;;;4.40;;
63714;SDS011;49858;48.956;9.076;2023-08-12T11:31:07;5.68;;;4.28;;
63714;SDS011;49858;48.956;9.076;2023-08-12T11:33:35;8.43;;;5.60;;
63714;SDS011;49858;48.956;9.076;2023-08-12T11:36:03;8.77;;;5.00;;
63714;SDS011;49858;48.956;9.076;2023-08-12T11:38:32;14.40;;;6.05;;
63714;SDS011;49858;48.956;9.076;2023-08-12T11:41:01;10.43;;;4.85;;
63714;SDS011;49858;48.956;9.076;2023-08-12T11:43:31;11.05;;;5.32;;
63714;SDS011;49858;48.956;9.076;2023-08-12T11:45:59;10.65;;;4.63;;
63714;SDS011;49858;48.956;9.076;2023-08-12T11:48:27;13.75;;;8.40;;
63714;SDS011;49858;48.956;9.076;2023-08-12T11:50:58;18.85;;;6.10;;
63714;SDS011;49858;48.956;9.076;2023-08-12T11:53:26;9.82;;;3.65;;
63714;SDS011;49858;48.956;9.076;2023-08-12T11:55:54;8.88;;;4.38;;
63714;SDS011;49858;48.956;9.076;2023-08-12T11:58:23;10.80;;;6.45;;
63714;SDS011;49858;48.956;9.076;2023-08-12T12:00:57;13.50;;;5.60;;
63714;SDS011;49858;48.956;9.076;2023-08-12T12:03:27;11.27;;;6.75;;
63714;SDS011;49858;48.956;9.076;2023-08-12T12:05:58;14.55;;;7.72;;
63714;SDS011;49858;48.956;9.076;2023-08-12T12:08:27;9.25;;;6.50;;
63714;SDS011;49858;48.956;9.076;2023-08-12T12:11:03;14.38;;;7.75;;
63714;SDS011;49858;48.956;9.076;2023-08-12T12:13:33;15.90;;;8.73;;
63714;SDS011;49858;48.956;9.076;2023-08-12T12:16:02;17.60;;;8.57;;
63714;SDS011;49858;48.956;9.076;2023-08-12T12:18:30;14.98;;;7.65;;
63714;SDS011;49858;48.956;9.076;2023-08-12T12:20:58;14.75;;;6.97;;
63714;SDS011;49858;48.956;9.076;2023-08-12T12:23:27;10.75;;;6.57;;
63714;SDS011;49858;48.956;9.076;2023-08-12T12:25:56;14.05;;;6.72;;
63714;SDS011;49858;48.956;9.076;2023-08-12T12:28:26;13.13;;;6.85;;
63714;SDS011;49858;48.956;9.076;2023-08-12T12:30:55;17.10;;;7.03;;
63714;SDS011;49858;48.956;9.076;2023-08-12T12:33:23;9.88;;;6.07;;
63714;SDS011;49858;48.956;9.076;2023-08-12T12:35:51;9.55;;;4.90;;
63714;SDS011;49858;48.956;9.076;2023-08-12T12:38:24;11.77;;;5.60;;
63714;SDS011;49858;48.956;9.076;2023-08-12T12:40:52;10.25;;;5.07;;
63714;SDS011;49858;48.956;9.076;2023-08-12T12:43:20;28.23;;;6.60;;
63714;SDS011;49858;48.956;9.076;2023-08-12T12:45:48;14.68;;;6.82;;
63714;SDS011;49858;48.956;9.076;2023-08-12T12:48:17;16.85;;;8.13;;
63714;SDS011;49858;48.956;9.076;2023-08-12T12:50:45;11.50;;;5.35;;
63714;SDS011;49858;48.956;9.076;2023-08-12T12:53:15;11.27;;;6.35;;
63714;SDS011;49858;48.956;9.076;2023-08-12T12:55:43;15.70;;;8.10;;
63714;SDS011;49858;48.956;9.076;2023-08-12T12:58:11;18.17;;;8.50;;
63714;SDS011;49858;48.956;9.076;2023-08-12T13:00:39;24.65;;;10.85;;
63714;SDS011;49858;48.956;9.076;2023-08-12T14:44:04;7.95;;;5.85;;
63714;SDS011;49858;48.956;9.076;2023-08-12T14:46:32;6.88;;;6.00;;
63714;SDS011;49858;48.956;9.076;2023-08-12T14:49:00;6.13;;;4.65;;
63714;SDS011;49858;48.956;9.076;2023-08-12T14:51:27;5.85;;;5.03;;
63714;SDS011;49858;48.956;9.076;2023-08-12T14:53:56;9.18;;;5.90;;
63714;SDS011;49858;48.956;9.076;2023-08-12T14:56:24;9.20;;;6.10;;
63714;SDS011;49858;48.956;9.076;2023-08-12T14:58:52;7.82;;;5.95;;
63714;SDS011;49858;48.956;9.076;2023-08-12T15:01:21;5.53;;;4.60;;
63714;SDS011;49858;48.956;9.076;2023-08-12T15:03:51;7.45;;;5.30;;
63714;SDS011;49858;48.956;9.076;2023-08-12T15:06:21;8.95;;;5.95;;
63714;SDS011;49858;48.956;9.076;2023-08-12T15:08:49;10.73;;;6.25;;
63714;SDS011;49858;48.956;9.076;2023-08-12T15:11:17;9.93;;;6.68;;
63714;SDS011;49858;48.956;9.076;2023-08-12T15:13:45;10.75;;;7.10;;
63714;SDS011;49858;48.956;9.076;2023-08-12T15:16:13;8.20;;;6.30;;
63714;SDS011;49858;48.956;9.076;2023-08-12T15:18:42;10.73;;;7.03;;
63714;SDS011;49858;48.956;9.076;2023-08-12T15:21:10;8.98;;;6.15;;
63714;SDS011;49858;48.956;9.076;2023-08-12T15:23:40;9.93;;;6.38;;
63714;SDS011;49858;48.956;9.076;2023-08-12T15:26:10;8.07;;;6.22;;
63714;SDS011;49858;48.956;9.076;2023-08-12T15:28:37;10.15;;;6.65;;
63714;SDS011;49858;48.956;9.076;2023-08-12T15:31:05;9.75;;;7.75;;
63714;SDS011;49858;48.956;9.076;2023-08-12T15:33:33;11.10;;;7.80;;
63714;SDS011;49858;48.956;9.076;2023-08-12T15:36:03;8.48;;;6.93;;
63714;SDS011;49858;48.956;9.076;2023-08-12T15:38:33;8.50;;;6.18;;
63714;SDS011;49858;48.956;9.076;2023-08-12T15:41:01;8.88;;;6.85;;
63714;SDS011;49858;48.956;9.076;2023-08-12T15:43:29;7.57;;;5.78;;
63714;SDS011;49858;48.956;9.076;2023-08-12T15:45:57;9.68;;;5.90;;
63714;SDS011;49858;48.956;9.076;2023-08-12T15:48:27;9.77;;;5.65;;
63714;SDS011;49858;48.956;9.076;2023-08-12T15:50:55;8.18;;;6.25;;
63714;SDS011;49858;48.956;9.076;2023-08-12T15:53:25;32.17;;;8.27;;
63714;SDS011;49858;48.956;9.076;2023-08-12T15:55:53;109.55;;;11.48;;
63714;SDS011;49858;48.956;9.076;2023-08-12T15:58:22;102.20;;;12.45;;
63714;SDS011;49858;48.956;9.076;2023-08-12T16:00:50;22.73;;;9.50;;
63714;SDS011;49858;48.956;9.076;2023-08-12T16:03:19;25.80;;;11.70;;
63714;SDS011;49858;48.956;9.076;2023-08-12T16:05:47;33.92;;;15.55;;
63714;SDS011;49858;48.956;9.076;2023-08-12T16:08:16;42.45;;;18.95;;
63714;SDS011;49858;48.956;9.076;2023-08-12T16:10:48;48.67;;;15.23;;
63714;SDS011;49858;48.956;9.076;2023-08-12T16:13:16;53.75;;;11.15;;
63714;SDS011;49858;48.956;9.076;2023-08-12T16:15:45;35.38;;;8.82;;
63714;SDS011;49858;48.956;9.076;2023-08-12T16:18:13;24.95;;;8.73;;
63714;SDS011;49858;48.956;9.076;2023-08-12T16:20:41;19.25;;;8.75;;
63714;SDS011;49858;48.956;9.076;2023-08-12T16:23:09;17.15;;;8.30;;
63714;SDS011;49858;48.956;9.076;2023-08-12T16:25:37;21.58;;;8.10;;
63714;SDS011;49858;48.956;9.076;2023-08-12T16:28:08;18.20;;;8.38;;
63714;SDS011;49858;48.956;9.076;2023-08-12T16:30:36;18.10;;;7.28;;
63714;SDS011;49858;48.956;9.076;2023-08-12T16:33:04;21.00;;;7.88;;